Puunene, Hawaii
Current Conditions -  °F | °C
As of 11:54 AM on Sunday 23 Nov 2014 (Local Time) from PHOG Reporting Station
Scattered Clouds Scattered Clouds  
Wind Chill: 85°   Ceiling: Unl
Heat Index: 87°   Visibility: 10mi
Dew Point: 65°   Wind: 10mph
Humidity: 51%   Direction: 340°NNW
Pressure: 29.96"   Gusts: NA
Location:  20.86°N, 156.45°W
Report Text: PHOG 232154Z 34009KT 10SM FEW035 SCT055 29/18 A2996 RMK AO2 SLP151 T02940183 $
Loading
Personal Weather Stations






























Interactive Weather Map New forecast layout! Learn more

10-Day Weather Forecast

Advertisements
Track Severe Weather on mobile